sensor_id;sensor_type;location;lat;lon;timestamp;temperature;humidity
66271;DHT22;53063;39.614;8.814;2023-02-18T00:01:12;7.30;99.90
66271;DHT22;53063;39.614;8.814;2023-02-18T00:03:39;7.30;99.90
66271;DHT22;53063;39.614;8.814;2023-02-18T00:08:38;7.20;99.90
66271;DHT22;53063;39.614;8.814;2023-02-18T00:11:05;7.20;99.90
66271;DHT22;53063;39.614;8.814;2023-02-18T00:13:31;7.20;99.90
66271;DHT22;53063;39.614;8.814;2023-02-18T00:16:01;7.00;99.90
66271;DHT22;53063;39.614;8.814;2023-02-18T00:18:27;6.80;99.90
66271;DHT22;53063;39.614;8.814;2023-02-18T00:20:53;6.60;99.90
66271;DHT22;53063;39.614;8.814;2023-02-18T00:23:19;6.70;99.90
66271;DHT22;53063;39.614;8.814;2023-02-18T00:25:45;6.90;99.90
66271;DHT22;53063;39.614;8.814;2023-02-18T00:28:11;6.90;99.90
66271;DHT22;53063;39.614;8.814;2023-02-18T00:30:41;6.90;99.90
66271;DHT22;53063;39.614;8.814;2023-02-18T00:33:08;6.90;99.90
66271;DHT22;53063;39.614;8.814;2023-02-18T00:35:34;7.00;99.90
66271;DHT22;53063;39.614;8.814;2023-02-18T00:38:00;7.00;99.90
66271;DHT22;53063;39.614;8.814;2023-02-18T00:40:26;7.00;99.90
66271;DHT22;53063;39.614;8.814;2023-02-18T00:42:52;7.10;99.90
66271;DHT22;53063;39.614;8.814;2023-02-18T00:45:18;7.10;99.90
66271;DHT22;53063;39.614;8.814;2023-02-18T00:47:45;7.00;99.90
66271;DHT22;53063;39.614;8.814;2023-02-18T00:50:11;7.00;99.90
66271;DHT22;53063;39.614;8.814;2023-02-18T00:52:37;7.00;99.90
66271;DHT22;53063;39.614;8.814;2023-02-18T00:55:03;7.00;99.90
66271;DHT22;53063;39.614;8.814;2023-02-18T00:57:28;7.00;99.90
66271;DHT22;53063;39.614;8.814;2023-02-18T00:59:54;7.10;99.90
66271;DHT22;53063;39.614;8.814;2023-02-18T01:02:20;7.10;99.90
66271;DHT22;53063;39.614;8.814;2023-02-18T01:04:46;7.00;99.90
66271;DHT22;53063;39.614;8.814;2023-02-18T01:07:12;6.90;99.90
66271;DHT22;53063;39.614;8.814;2023-02-18T01:09:38;6.80;99.90
66271;DHT22;53063;39.614;8.814;2023-02-18T01:12:06;6.70;99.90
66271;DHT22;53063;39.614;8.814;2023-02-18T01:14:32;6.70;99.90
66271;DHT22;53063;39.614;8.814;2023-02-18T01:16:58;6.50;99.90
66271;DHT22;53063;39.614;8.814;2023-02-18T01:19:24;6.30;99.90
66271;DHT22;53063;39.614;8.814;2023-02-18T01:21:50;6.50;99.90
66271;DHT22;53063;39.614;8.814;2023-02-18T01:24:16;6.50;99.90
66271;DHT22;53063;39.614;8.814;2023-02-18T01:26:41;6.60;99.90
66271;DHT22;53063;39.614;8.814;2023-02-18T01:29:07;6.70;99.90
66271;DHT22;53063;39.614;8.814;2023-02-18T01:31:33;6.70;99.90
66271;DHT22;53063;39.614;8.814;2023-02-18T01:33:59;6.70;99.90
66271;DHT22;53063;39.614;8.814;2023-02-18T01:36:27;6.70;99.90
66271;DHT22;53063;39.614;8.814;2023-02-18T01:38:55;6.70;99.90
66271;DHT22;53063;39.614;8.814;2023-02-18T01:41:21;6.60;99.90
66271;DHT22;53063;39.614;8.814;2023-02-18T01:43:47;6.70;99.90
66271;DHT22;53063;39.614;8.814;2023-02-18T01:46:20;6.70;99.90
66271;DHT22;53063;39.614;8.814;2023-02-18T01:51:40;6.80;99.90
66271;DHT22;53063;39.614;8.814;2023-02-18T01:54:19;6.70;99.90
66271;DHT22;53063;39.614;8.814;2023-02-18T01:56:52;6.70;99.90
66271;DHT22;53063;39.614;8.814;2023-02-18T01:59:36;6.60;99.90
66271;DHT22;53063;39.614;8.814;2023-02-18T02:02:03;6.70;99.90
66271;DHT22;53063;39.614;8.814;2023-02-18T02:04:31;6.70;99.90
66271;DHT22;53063;39.614;8.814;2023-02-18T02:06:58;6.80;99.90
66271;DHT22;53063;39.614;8.814;2023-02-18T02:09:27;6.70;99.90
66271;DHT22;53063;39.614;8.814;2023-02-18T02:15:33;6.70;99.90
66271;DHT22;53063;39.614;8.814;2023-02-18T02:32:19;6.80;99.90
66271;DHT22;53063;39.614;8.814;2023-02-18T02:34:54;6.80;99.90
66271;DHT22;53063;39.614;8.814;2023-02-18T02:37:30;6.60;99.90
66271;DHT22;53063;39.614;8.814;2023-02-18T02:50:47;6.50;99.90
66271;DHT22;53063;39.614;8.814;2023-02-18T02:53:29;6.50;99.90
66271;DHT22;53063;39.614;8.814;2023-02-18T02:55:56;6.50;99.90
66271;DHT22;53063;39.614;8.814;2023-02-18T02:58:24;6.50;99.90
66271;DHT22;53063;39.614;8.814;2023-02-18T03:01:19;6.40;99.90
66271;DHT22;53063;39.614;8.814;2023-02-18T03:15:13;6.30;99.90
66271;DHT22;53063;39.614;8.814;2023-02-18T03:18:11;6.20;99.90
66271;DHT22;53063;39.614;8.814;2023-02-18T03:23:21;6.20;99.90
66271;DHT22;53063;39.614;8.814;2023-02-18T03:25:47;6.10;99.90
66271;DHT22;53063;39.614;8.814;2023-02-18T03:28:18;6.20;99.90
66271;DHT22;53063;39.614;8.814;2023-02-18T03:30:47;6.20;99.90
66271;DHT22;53063;39.614;8.814;2023-02-18T03:33:17;6.20;99.90
66271;DHT22;53063;39.614;8.814;2023-02-18T03:35:46;6.20;99.90
66271;DHT22;53063;39.614;8.814;2023-02-18T03:38:29;6.20;99.90
66271;DHT22;53063;39.614;8.814;2023-02-18T03:40:58;6.20;99.90
66271;DHT22;53063;39.614;8.814;2023-02-18T03:43:24;6.20;99.90
66271;DHT22;53063;39.614;8.814;2023-02-18T03:45:50;6.20;99.90
66271;DHT22;53063;39.614;8.814;2023-02-18T03:48:16;6.20;99.90
66271;DHT22;53063;39.614;8.814;2023-02-18T03:50:43;6.20;99.90
66271;DHT22;53063;39.614;8.814;2023-02-18T03:53:09;6.10;99.90
66271;DHT22;53063;39.614;8.814;2023-02-18T03:55:36;6.20;99.90
66271;DHT22;53063;39.614;8.814;2023-02-18T03:58:02;6.10;99.90
66271;DHT22;53063;39.614;8.814;2023-02-18T04:00:28;6.10;99.90
66271;DHT22;53063;39.614;8.814;2023-02-18T04:02:53;6.10;99.90
66271;DHT22;53063;39.614;8.814;2023-02-18T04:05:19;6.10;99.90
66271;DHT22;53063;39.614;8.814;2023-02-18T04:07:45;6.00;99.90
66271;DHT22;53063;39.614;8.814;2023-02-18T04:10:12;6.10;99.90
66271;DHT22;53063;39.614;8.814;2023-02-18T04:12:38;6.00;99.90
66271;DHT22;53063;39.614;8.814;2023-02-18T04:15:04;5.90;99.90
66271;DHT22;53063;39.614;8.814;2023-02-18T04:17:32;5.90;99.90
66271;DHT22;53063;39.614;8.814;2023-02-18T04:19:58;5.70;99.90
66271;DHT22;53063;39.614;8.814;2023-02-18T04:22:24;5.90;99.90
66271;DHT22;53063;39.614;8.814;2023-02-18T04:24:50;5.90;99.90
66271;DHT22;53063;39.614;8.814;2023-02-18T04:27:16;5.80;99.90
66271;DHT22;53063;39.614;8.814;2023-02-18T04:29:42;5.70;99.90
66271;DHT22;53063;39.614;8.814;2023-02-18T04:32:08;5.90;99.90
66271;DHT22;53063;39.614;8.814;2023-02-18T04:34:34;5.90;99.90
66271;DHT22;53063;39.614;8.814;2023-02-18T04:36:59;5.90;99.90
66271;DHT22;53063;39.614;8.814;2023-02-18T04:39:25;5.90;99.90
66271;DHT22;53063;39.614;8.814;2023-02-18T04:41:51;6.30;99.90
66271;DHT22;53063;39.614;8.814;2023-02-18T04:44:17;6.30;99.90
66271;DHT22;53063;39.614;8.814;2023-02-18T04:46:43;6.30;99.90
66271;DHT22;53063;39.614;8.814;2023-02-18T04:49:09;6.30;99.90
66271;DHT22;53063;39.614;8.814;2023-02-18T04:51:35;6.50;99.90
66271;DHT22;53063;39.614;8.814;2023-02-18T04:54:03;6.50;99.90
66271;DHT22;53063;39.614;8.814;2023-02-18T04:56:29;6.60;99.90
66271;DHT22;53063;39.614;8.814;2023-02-18T04:58:54;6.50;99.90
66271;DHT22;53063;39.614;8.814;2023-02-18T05:01:20;6.20;99.90
66271;DHT22;53063;39.614;8.814;2023-02-18T05:03:46;6.30;99.90
66271;DHT22;53063;39.614;8.814;2023-02-18T05:06:12;6.50;99.90
66271;DHT22;53063;39.614;8.814;2023-02-18T05:08:38;6.40;99.90
66271;DHT22;53063;39.614;8.814;2023-02-18T05:11:06;6.40;99.90
66271;DHT22;53063;39.614;8.814;2023-02-18T05:13:32;6.50;99.90
66271;DHT22;53063;39.614;8.814;2023-02-18T05:15:58;6.60;99.90
66271;DHT22;53063;39.614;8.814;2023-02-18T05:18:24;6.80;99.90
66271;DHT22;53063;39.614;8.814;2023-02-18T05:20:50;6.90;99.90
66271;DHT22;53063;39.614;8.814;2023-02-18T05:23:16;7.00;99.90
66271;DHT22;53063;39.614;8.814;2023-02-18T05:25:44;6.90;99.90
66271;DHT22;53063;39.614;8.814;2023-02-18T05:28:10;7.00;99.90
66271;DHT22;53063;39.614;8.814;2023-02-18T05:30:36;7.00;99.90
66271;DHT22;53063;39.614;8.814;2023-02-18T05:33:03;7.00;99.90
66271;DHT22;53063;39.614;8.814;2023-02-18T05:35:29;7.00;99.90
66271;DHT22;53063;39.614;8.814;2023-02-18T05:37:55;7.10;99.90
66271;DHT22;53063;39.614;8.814;2023-02-18T05:40:21;7.00;99.90
66271;DHT22;53063;39.614;8.814;2023-02-18T05:42:47;7.00;99.90
66271;DHT22;53063;39.614;8.814;2023-02-18T05:45:12;6.90;99.90
66271;DHT22;53063;39.614;8.814;2023-02-18T05:47:38;7.00;99.90
66271;DHT22;53063;39.614;8.814;2023-02-18T05:50:05;6.90;99.90
66271;DHT22;53063;39.614;8.814;2023-02-18T05:52:31;6.90;99.90
66271;DHT22;53063;39.614;8.814;2023-02-18T05:54:57;6.70;99.90
66271;DHT22;53063;39.614;8.814;2023-02-18T05:57:23;6.60;99.90
66271;DHT22;53063;39.614;8.814;2023-02-18T05:59:49;6.30;99.90
66271;DHT22;53063;39.614;8.814;2023-02-18T06:02:15;5.70;99.90
66271;DHT22;53063;39.614;8.814;2023-02-18T06:04:41;5.60;99.90
66271;DHT22;53063;39.614;8.814;2023-02-18T06:07:07;5.60;99.90
66271;DHT22;53063;39.614;8.814;2023-02-18T06:09:33;5.60;99.90
66271;DHT22;53063;39.614;8.814;2023-02-18T06:11:59;5.50;99.90
66271;DHT22;53063;39.614;8.814;2023-02-18T06:14:25;5.60;99.90
66271;DHT22;53063;39.614;8.814;2023-02-18T06:16:51;5.60;99.90
66271;DHT22;53063;39.614;8.814;2023-02-18T06:19:17;5.70;99.90
66271;DHT22;53063;39.614;8.814;2023-02-18T06:21:43;5.70;99.90
66271;DHT22;53063;39.614;8.814;2023-02-18T06:24:09;5.70;99.90
66271;DHT22;53063;39.614;8.814;2023-02-18T06:26:35;5.80;99.90
66271;DHT22;53063;39.614;8.814;2023-02-18T06:29:01;6.00;99.90
66271;DHT22;53063;39.614;8.814;2023-02-18T06:31:27;6.10;99.90
66271;DHT22;53063;39.614;8.814;2023-02-18T06:33:53;6.10;99.90
66271;DHT22;53063;39.614;8.814;2023-02-18T06:36:19;6.20;99.90
66271;DHT22;53063;39.614;8.814;2023-02-18T06:38:45;6.10;99.90
66271;DHT22;53063;39.614;8.814;2023-02-18T06:41:12;5.90;99.90
66271;DHT22;53063;39.614;8.814;2023-02-18T06:43:39;6.00;99.90
66271;DHT22;53063;39.614;8.814;2023-02-18T06:46:05;6.10;99.90
66271;DHT22;53063;39.614;8.814;2023-02-18T06:48:32;6.10;99.90
66271;DHT22;53063;39.614;8.814;2023-02-18T06:50:58;6.30;99.90
66271;DHT22;53063;39.614;8.814;2023-02-18T06:53:24;6.90;99.90
66271;DHT22;53063;39.614;8.814;2023-02-18T06:55:50;7.50;99.90
66271;DHT22;53063;39.614;8.814;2023-02-18T06:58:16;7.90;99.90
66271;DHT22;53063;39.614;8.814;2023-02-18T07:00:42;8.20;99.90
66271;DHT22;53063;39.614;8.814;2023-02-18T07:03:11;8.30;99.90
66271;DHT22;53063;39.614;8.814;2023-02-18T07:05:37;8.40;99.90
66271;DHT22;53063;39.614;8.814;2023-02-18T07:08:03;8.90;99.90
66271;DHT22;53063;39.614;8.814;2023-02-18T07:10:29;10.00;99.90
66271;DHT22;53063;39.614;8.814;2023-02-18T07:12:55;10.50;99.90
66271;DHT22;53063;39.614;8.814;2023-02-18T07:15:21;11.60;99.90
66271;DHT22;53063;39.614;8.814;2023-02-18T07:17:52;12.40;97.70
66271;DHT22;53063;39.614;8.814;2023-02-18T07:20:19;12.80;92.40
66271;DHT22;53063;39.614;8.814;2023-02-18T07:22:45;14.20;88.60
66271;DHT22;53063;39.614;8.814;2023-02-18T07:25:12;14.30;83.00
66271;DHT22;53063;39.614;8.814;2023-02-18T07:27:38;14.30;80.20
66271;DHT22;53063;39.614;8.814;2023-02-18T07:30:04;14.60;79.80
66271;DHT22;53063;39.614;8.814;2023-02-18T07:32:30;15.30;76.00
66271;DHT22;53063;39.614;8.814;2023-02-18T07:34:56;15.00;74.60
66271;DHT22;53063;39.614;8.814;2023-02-18T07:37:22;16.00;74.50
66271;DHT22;53063;39.614;8.814;2023-02-18T07:39:49;16.00;71.30
66271;DHT22;53063;39.614;8.814;2023-02-18T07:42:14;16.00;71.10
66271;DHT22;53063;39.614;8.814;2023-02-18T07:44:41;16.20;69.20
66271;DHT22;53063;39.614;8.814;2023-02-18T07:47:07;16.70;67.40
66271;DHT22;53063;39.614;8.814;2023-02-18T07:49:36;17.60;64.20
66271;DHT22;53063;39.614;8.814;2023-02-18T07:52:03;18.70;61.00
66271;DHT22;53063;39.614;8.814;2023-02-18T07:54:29;18.50;59.10
66271;DHT22;53063;39.614;8.814;2023-02-18T07:56:54;18.30;59.30
66271;DHT22;53063;39.614;8.814;2023-02-18T07:59:20;18.10;59.80
66271;DHT22;53063;39.614;8.814;2023-02-18T08:01:46;17.30;61.30
66271;DHT22;53063;39.614;8.814;2023-02-18T08:04:12;17.80;63.50
66271;DHT22;53063;39.614;8.814;2023-02-18T08:06:45;18.80;61.40
66271;DHT22;53063;39.614;8.814;2023-02-18T08:09:11;18.70;58.70
66271;DHT22;53063;39.614;8.814;2023-02-18T08:11:37;17.90;61.20
66271;DHT22;53063;39.614;8.814;2023-02-18T08:14:03;18.60;59.00
66271;DHT22;53063;39.614;8.814;2023-02-18T08:16:29;19.20;56.20
66271;DHT22;53063;39.614;8.814;2023-02-18T08:18:56;18.70;57.50
66271;DHT22;53063;39.614;8.814;2023-02-18T08:21:23;18.60;58.50
66271;DHT22;53063;39.614;8.814;2023-02-18T08:23:50;19.00;56.80
66271;DHT22;53063;39.614;8.814;2023-02-18T08:26:16;19.90;53.80
66271;DHT22;53063;39.614;8.814;2023-02-18T08:28:43;19.90;52.50
66271;DHT22;53063;39.614;8.814;2023-02-18T08:31:35;19.20;55.20
66271;DHT22;53063;39.614;8.814;2023-02-18T08:34:01;19.30;54.60
66271;DHT22;53063;39.614;8.814;2023-02-18T08:36:28;20.10;53.80
66271;DHT22;53063;39.614;8.814;2023-02-18T08:38:55;20.30;52.60
66271;DHT22;53063;39.614;8.814;2023-02-18T08:41:22;21.40;50.00
66271;DHT22;53063;39.614;8.814;2023-02-18T08:43:48;19.80;51.50
66271;DHT22;53063;39.614;8.814;2023-02-18T08:46:15;19.80;53.90
66271;DHT22;53063;39.614;8.814;2023-02-18T08:48:42;21.00;49.40
66271;DHT22;53063;39.614;8.814;2023-02-18T08:51:20;21.80;49.10
66271;DHT22;53063;39.614;8.814;2023-02-18T08:53:46;21.90;49.20
66271;DHT22;53063;39.614;8.814;2023-02-18T08:56:13;21.90;47.90
66271;DHT22;53063;39.614;8.814;2023-02-18T08:58:40;21.30;49.60
66271;DHT22;53063;39.614;8.814;2023-02-18T09:01:09;21.70;48.10
66271;DHT22;53063;39.614;8.814;2023-02-18T09:03:36;21.20;48.50
66271;DHT22;53063;39.614;8.814;2023-02-18T09:06:02;20.30;48.80
66271;DHT22;53063;39.614;8.814;2023-02-18T09:08:28;22.00;47.80
66271;DHT22;53063;39.614;8.814;2023-02-18T09:10:56;21.70;48.60
66271;DHT22;53063;39.614;8.814;2023-02-18T09:13:22;22.10;47.50
66271;DHT22;53063;39.614;8.814;2023-02-18T09:15:56;22.10;46.90
66271;DHT22;53063;39.614;8.814;2023-02-18T09:18:22;21.80;47.70
66271;DHT22;53063;39.614;8.814;2023-02-18T09:20:48;22.00;47.30
66271;DHT22;53063;39.614;8.814;2023-02-18T09:23:14;22.90;46.00
66271;DHT22;53063;39.614;8.814;2023-02-18T09:25:40;23.00;44.20
66271;DHT22;53063;39.614;8.814;2023-02-18T09:28:06;21.00;47.40
66271;DHT22;53063;39.614;8.814;2023-02-18T09:30:32;22.20;47.10
66271;DHT22;53063;39.614;8.814;2023-02-18T09:32:58;22.20;46.20
66271;DHT22;53063;39.614;8.814;2023-02-18T09:35:24;23.00;43.90
66271;DHT22;53063;39.614;8.814;2023-02-18T09:37:50;22.50;44.40
66271;DHT22;53063;39.614;8.814;2023-02-18T09:40:28;22.70;44.70
66271;DHT22;53063;39.614;8.814;2023-02-18T09:42:55;22.50;44.00
66271;DHT22;53063;39.614;8.814;2023-02-18T09:45:22;22.80;43.90
66271;DHT22;53063;39.614;8.814;2023-02-18T09:47:49;22.50;44.10
66271;DHT22;53063;39.614;8.814;2023-02-18T09:50:20;23.00;43.80
66271;DHT22;53063;39.614;8.814;2023-02-18T09:52:47;24.30;42.30
66271;DHT22;53063;39.614;8.814;2023-02-18T09:55:18;23.30;43.70
66271;DHT22;53063;39.614;8.814;2023-02-18T09:57:56;22.70;43.20
66271;DHT22;53063;39.614;8.814;2023-02-18T10:00:45;23.30;42.90
66271;DHT22;53063;39.614;8.814;2023-02-18T10:03:26;23.50;43.30
66271;DHT22;53063;39.614;8.814;2023-02-18T10:08:28;21.70;45.20
66271;DHT22;53063;39.614;8.814;2023-02-18T10:10:56;19.90;49.70
66271;DHT22;53063;39.614;8.814;2023-02-18T10:13:26;18.90;52.00
66271;DHT22;53063;39.614;8.814;2023-02-18T10:15:52;18.20;54.60
66271;DHT22;53063;39.614;8.814;2023-02-18T10:21:05;17.80;56.60
66271;DHT22;53063;39.614;8.814;2023-02-18T10:23:34;17.90;56.70
66271;DHT22;53063;39.614;8.814;2023-02-18T10:26:04;17.90;55.40
66271;DHT22;53063;39.614;8.814;2023-02-18T10:28:32;18.20;55.40
66271;DHT22;53063;39.614;8.814;2023-02-18T10:31:08;18.30;56.70
66271;DHT22;53063;39.614;8.814;2023-02-18T10:36:50;17.50;56.30
66271;DHT22;53063;39.614;8.814;2023-02-18T10:49:59;18.80;56.20
66271;DHT22;53063;39.614;8.814;2023-02-18T10:52:32;19.60;52.40
66271;DHT22;53063;39.614;8.814;2023-02-18T10:55:06;18.70;55.00
66271;DHT22;53063;39.614;8.814;2023-02-18T10:57:34;17.90;56.90
66271;DHT22;53063;39.614;8.814;2023-02-18T11:00:23;17.10;58.20
66271;DHT22;53063;39.614;8.814;2023-02-18T11:03:03;17.60;60.00
66271;DHT22;53063;39.614;8.814;2023-02-18T11:05:37;18.20;57.40
66271;DHT22;53063;39.614;8.814;2023-02-18T11:08:10;19.00;55.20
66271;DHT22;53063;39.614;8.814;2023-02-18T11:10:41;19.10;54.50
66271;DHT22;53063;39.614;8.814;2023-02-18T11:13:11;19.20;52.80
66271;DHT22;53063;39.614;8.814;2023-02-18T11:15:57;18.90;53.00
66271;DHT22;53063;39.614;8.814;2023-02-18T11:21:04;18.20;55.50
66271;DHT22;53063;39.614;8.814;2023-02-18T11:23:31;17.90;56.40
66271;DHT22;53063;39.614;8.814;2023-02-18T11:26:12;18.70;54.40
66271;DHT22;53063;39.614;8.814;2023-02-18T11:28:42;19.30;51.50
66271;DHT22;53063;39.614;8.814;2023-02-18T11:31:22;17.90;52.10
66271;DHT22;53063;39.614;8.814;2023-02-18T11:33:55;18.40;53.20
66271;DHT22;53063;39.614;8.814;2023-02-18T11:36:28;19.30;51.50
66271;DHT22;53063;39.614;8.814;2023-02-18T11:39:01;19.80;49.40
66271;DHT22;53063;39.614;8.814;2023-02-18T11:41:41;19.90;49.20
66271;DHT22;53063;39.614;8.814;2023-02-18T11:44:20;20.00;48.20
66271;DHT22;53063;39.614;8.814;2023-02-18T11:47:04;18.80;49.90
66271;DHT22;53063;39.614;8.814;2023-02-18T11:49:32;19.40;49.40
66271;DHT22;53063;39.614;8.814;2023-02-18T11:52:16;19.20;47.70
66271;DHT22;53063;39.614;8.814;2023-02-18T11:54:59;18.80;51.10
66271;DHT22;53063;39.614;8.814;2023-02-18T11:57:26;19.60;48.60
66271;DHT22;53063;39.614;8.814;2023-02-18T11:59:52;19.70;46.90
66271;DHT22;53063;39.614;8.814;2023-02-18T12:05:22;19.60;46.20
66271;DHT22;53063;39.614;8.814;2023-02-18T12:07:58;19.60;46.20
66271;DHT22;53063;39.614;8.814;2023-02-18T12:10:27;19.50;46.50
66271;DHT22;53063;39.614;8.814;2023-02-18T12:13:04;19.60;45.20
66271;DHT22;53063;39.614;8.814;2023-02-18T12:21:06;19.40;43.00
66271;DHT22;53063;39.614;8.814;2023-02-18T12:23:55;19.70;46.70
66271;DHT22;53063;39.614;8.814;2023-02-18T12:49:03;20.00;46.80
66271;DHT22;53063;39.614;8.814;2023-02-18T13:11:10;20.00;49.00
66271;DHT22;53063;39.614;8.814;2023-02-18T13:13:51;20.00;49.30
66271;DHT22;53063;39.614;8.814;2023-02-18T13:16:20;20.40;48.80
66271;DHT22;53063;39.614;8.814;2023-02-18T13:19:27;19.70;49.50
66271;DHT22;53063;39.614;8.814;2023-02-18T13:21:47;18.70;51.10
66271;DHT22;53063;39.614;8.814;2023-02-18T13:24:39;19.50;51.80
66271;DHT22;53063;39.614;8.814;2023-02-18T13:27:11;20.20;50.30
66271;DHT22;53063;39.614;8.814;2023-02-18T13:29:58;20.30;49.70
66271;DHT22;53063;39.614;8.814;2023-02-18T13:35:59;20.10;50.60
66271;DHT22;53063;39.614;8.814;2023-02-18T13:41:09;20.20;49.80
66271;DHT22;53063;39.614;8.814;2023-02-18T13:43:36;20.30;49.80
66271;DHT22;53063;39.614;8.814;2023-02-18T13:46:15;20.20;48.60
66271;DHT22;53063;39.614;8.814;2023-02-18T13:51:25;20.50;48.70
66271;DHT22;53063;39.614;8.814;2023-02-18T13:54:02;20.40;50.40
66271;DHT22;53063;39.614;8.814;2023-02-18T13:56:32;20.10;50.60
66271;DHT22;53063;39.614;8.814;2023-02-18T13:59:05;20.00;51.20
66271;DHT22;53063;39.614;8.814;2023-02-18T14:04:47;20.10;52.60
66271;DHT22;53063;39.614;8.814;2023-02-18T14:10:00;19.60;54.90
66271;DHT22;53063;39.614;8.814;2023-02-18T14:12:41;19.70;54.50
66271;DHT22;53063;39.614;8.814;2023-02-18T14:20:26;19.30;55.30
66271;DHT22;53063;39.614;8.814;2023-02-18T14:22:52;19.00;56.50
66271;DHT22;53063;39.614;8.814;2023-02-18T14:25:34;19.00;55.80
66271;DHT22;53063;39.614;8.814;2023-02-18T14:28:03;18.90;56.00
66271;DHT22;53063;39.614;8.814;2023-02-18T14:30:49;18.70;56.70
66271;DHT22;53063;39.614;8.814;2023-02-18T14:33:18;18.90;56.60
66271;DHT22;53063;39.614;8.814;2023-02-18T14:35:49;18.90;56.40
66271;DHT22;53063;39.614;8.814;2023-02-18T14:49:54;17.80;59.50
66271;DHT22;53063;39.614;8.814;2023-02-18T14:52:44;17.80;60.40
66271;DHT22;53063;39.614;8.814;2023-02-18T14:55:19;17.80;60.80
66271;DHT22;53063;39.614;8.814;2023-02-18T14:57:58;17.70;61.30
66271;DHT22;53063;39.614;8.814;2023-02-18T15:00:26;17.60;60.50
66271;DHT22;53063;39.614;8.814;2023-02-18T15:02:58;17.60;60.80
66271;DHT22;53063;39.614;8.814;2023-02-18T15:05:28;17.60;62.10
66271;DHT22;53063;39.614;8.814;2023-02-18T15:08:02;17.40;62.40
66271;DHT22;53063;39.614;8.814;2023-02-18T15:10:35;17.50;62.00
66271;DHT22;53063;39.614;8.814;2023-02-18T15:13:04;17.20;62.60
66271;DHT22;53063;39.614;8.814;2023-02-18T15:15:33;17.00;63.30
66271;DHT22;53063;39.614;8.814;2023-02-18T15:18:01;17.00;64.00
66271;DHT22;53063;39.614;8.814;2023-02-18T15:20:32;17.20;63.10
66271;DHT22;53063;39.614;8.814;2023-02-18T15:22:58;17.00;64.10
66271;DHT22;53063;39.614;8.814;2023-02-18T15:25:25;16.70;65.00
66271;DHT22;53063;39.614;8.814;2023-02-18T15:27:51;16.70;65.50
66271;DHT22;53063;39.614;8.814;2023-02-18T15:30:29;16.60;65.50
66271;DHT22;53063;39.614;8.814;2023-02-18T15:32:59;16.60;65.60
66271;DHT22;53063;39.614;8.814;2023-02-18T15:35:28;16.50;65.70
66271;DHT22;53063;39.614;8.814;2023-02-18T15:37:57;16.50;66.40
66271;DHT22;53063;39.614;8.814;2023-02-18T15:40:32;16.30;66.70
66271;DHT22;53063;39.614;8.814;2023-02-18T15:43:01;16.10;67.90
66271;DHT22;53063;39.614;8.814;2023-02-18T15:45:34;16.00;69.00
66271;DHT22;53063;39.614;8.814;2023-02-18T15:48:01;16.00;68.90
66271;DHT22;53063;39.614;8.814;2023-02-18T15:50:32;16.00;68.50
66271;DHT22;53063;39.614;8.814;2023-02-18T15:53:05;15.90;69.20
66271;DHT22;53063;39.614;8.814;2023-02-18T15:55:37;15.80;69.50
66271;DHT22;53063;39.614;8.814;2023-02-18T15:58:05;15.70;70.40
66271;DHT22;53063;39.614;8.814;2023-02-18T16:01:05;15.50;70.40
66271;DHT22;53063;39.614;8.814;2023-02-18T16:06:24;15.60;70.80
66271;DHT22;53063;39.614;8.814;2023-02-18T16:09:24;15.40;71.20
66271;DHT22;53063;39.614;8.814;2023-02-18T16:12:04;15.20;72.20
66271;DHT22;53063;39.614;8.814;2023-02-18T16:14:46;15.00;73.20
66271;DHT22;53063;39.614;8.814;2023-02-18T16:17:18;15.10;73.20
66271;DHT22;53063;39.614;8.814;2023-02-18T16:27:53;14.50;74.90
66271;DHT22;53063;39.614;8.814;2023-02-18T16:30:26;14.40;75.50
66271;DHT22;53063;39.614;8.814;2023-02-18T16:32:52;14.50;75.40
66271;DHT22;53063;39.614;8.814;2023-02-18T16:35:19;14.40;75.20
66271;DHT22;53063;39.614;8.814;2023-02-18T16:37:46;14.10;76.00
66271;DHT22;53063;39.614;8.814;2023-02-18T16:42:43;14.10;77.10
66271;DHT22;53063;39.614;8.814;2023-02-18T16:45:11;13.90;77.60
66271;DHT22;53063;39.614;8.814;2023-02-18T16:47:38;13.80;78.60
66271;DHT22;53063;39.614;8.814;2023-02-18T16:50:05;13.70;78.80
66271;DHT22;53063;39.614;8.814;2023-02-18T16:52:31;13.70;79.30
66271;DHT22;53063;39.614;8.814;2023-02-18T16:55:00;13.60;79.60
66271;DHT22;53063;39.614;8.814;2023-02-18T16:57:26;13.60;80.10
66271;DHT22;53063;39.614;8.814;2023-02-18T16:59:52;13.40;80.60
66271;DHT22;53063;39.614;8.814;2023-02-18T17:02:21;13.40;80.90
66271;DHT22;53063;39.614;8.814;2023-02-18T17:04:47;13.30;81.60
66271;DHT22;53063;39.614;8.814;2023-02-18T17:07:15;13.20;82.40
66271;DHT22;53063;39.614;8.814;2023-02-18T17:09:41;13.10;83.00
66271;DHT22;53063;39.614;8.814;2023-02-18T17:12:08;13.00;83.30
66271;DHT22;53063;39.614;8.814;2023-02-18T17:14:34;12.90;83.80
66271;DHT22;53063;39.614;8.814;2023-02-18T17:17:00;12.80;84.50
66271;DHT22;53063;39.614;8.814;2023-02-18T17:19:26;12.70;85.00
66271;DHT22;53063;39.614;8.814;2023-02-18T17:21:52;12.70;85.80
66271;DHT22;53063;39.614;8.814;2023-02-18T17:24:18;12.60;85.80
66271;DHT22;53063;39.614;8.814;2023-02-18T17:26:44;12.60;85.90
66271;DHT22;53063;39.614;8.814;2023-02-18T17:29:10;12.50;86.60
66271;DHT22;53063;39.614;8.814;2023-02-18T17:31:42;12.50;86.70
66271;DHT22;53063;39.614;8.814;2023-02-18T17:34:24;12.50;87.00
66271;DHT22;53063;39.614;8.814;2023-02-18T17:36:51;12.40;87.60
66271;DHT22;53063;39.614;8.814;2023-02-18T17:39:17;12.30;87.50
66271;DHT22;53063;39.614;8.814;2023-02-18T17:41:44;12.20;87.90
66271;DHT22;53063;39.614;8.814;2023-02-18T17:44:18;12.20;88.70
66271;DHT22;53063;39.614;8.814;2023-02-18T17:46:45;12.20;89.40
66271;DHT22;53063;39.614;8.814;2023-02-18T17:49:12;12.20;89.80
66271;DHT22;53063;39.614;8.814;2023-02-18T17:51:38;12.20;89.80
66271;DHT22;53063;39.614;8.814;2023-02-18T17:54:18;12.10;90.20
66271;DHT22;53063;39.614;8.814;2023-02-18T17:56:45;12.10;90.20
66271;DHT22;53063;39.614;8.814;2023-02-18T17:59:11;12.00;90.90
66271;DHT22;53063;39.614;8.814;2023-02-18T18:01:38;11.80;91.40
66271;DHT22;53063;39.614;8.814;2023-02-18T18:04:10;11.80;92.20
66271;DHT22;53063;39.614;8.814;2023-02-18T18:06:37;11.70;93.00
66271;DHT22;53063;39.614;8.814;2023-02-18T18:09:03;11.60;93.60
66271;DHT22;53063;39.614;8.814;2023-02-18T18:11:29;11.60;94.70
66271;DHT22;53063;39.614;8.814;2023-02-18T18:13:56;11.60;95.40
66271;DHT22;53063;39.614;8.814;2023-02-18T18:16:22;11.60;95.50
66271;DHT22;53063;39.614;8.814;2023-02-18T18:18:48;11.60;96.30
66271;DHT22;53063;39.614;8.814;2023-02-18T18:21:23;11.40;96.70
66271;DHT22;53063;39.614;8.814;2023-02-18T18:23:49;11.40;97.90
66271;DHT22;53063;39.614;8.814;2023-02-18T18:26:15;11.30;98.70
66271;DHT22;53063;39.614;8.814;2023-02-18T18:28:41;11.20;99.40
66271;DHT22;53063;39.614;8.814;2023-02-18T18:31:12;11.40;99.90
66271;DHT22;53063;39.614;8.814;2023-02-18T18:33:39;11.50;99.90
66271;DHT22;53063;39.614;8.814;2023-02-18T18:36:06;11.40;99.50